sensor_id;sensor_type;location;lat;lon;timestamp;pressure;altitude;pressure_sealevel;temperature;humidity
10167;BME280;62970;53.130;8.244;2023-04-26T00:00:42;101698.69;;;3.43;56.50
10167;BME280;62970;53.130;8.244;2023-04-26T00:03:13;101697.69;;;3.35;56.63
10167;BME280;62970;53.130;8.244;2023-04-26T00:05:42;101700.97;;;3.28;56.39
10167;BME280;62970;53.130;8.244;2023-04-26T00:08:14;101699.06;;;3.20;57.02
10167;BME280;62970;53.130;8.244;2023-04-26T00:10:43;101699.81;;;3.14;56.65
10167;BME280;62970;53.130;8.244;2023-04-26T00:13:13;101711.78;;;3.12;57.31
10167;BME280;62970;53.130;8.244;2023-04-26T00:15:42;101716.13;;;3.15;56.98
10167;BME280;62970;53.130;8.244;2023-04-26T00:18:11;101736.06;;;3.22;57.48
10167;BME280;62970;53.130;8.244;2023-04-26T00:20:41;101732.84;;;3.32;57.74
10167;BME280;62970;53.130;8.244;2023-04-26T00:23:13;101717.63;;;3.44;57.50
10167;BME280;62970;53.130;8.244;2023-04-26T00:25:43;101695.47;;;3.54;57.87
10167;BME280;62970;53.130;8.244;2023-04-26T00:28:12;101693.91;;;3.62;57.67
10167;BME280;62970;53.130;8.244;2023-04-26T00:30:41;101702.59;;;3.67;57.42
10167;BME280;62970;53.130;8.244;2023-04-26T00:33:13;101709.56;;;3.71;58.00
10167;BME280;62970;53.130;8.244;2023-04-26T00:35:43;101708.78;;;3.75;57.87
10167;BME280;62970;53.130;8.244;2023-04-26T00:38:14;101707.94;;;3.76;57.38
10167;BME280;62970;53.130;8.244;2023-04-26T00:40:44;101707.97;;;3.77;57.88
10167;BME280;62970;53.130;8.244;2023-04-26T00:43:13;101707.97;;;3.77;57.36
10167;BME280;62970;53.130;8.244;2023-04-26T00:45:42;101701.00;;;3.73;57.52
10167;BME280;62970;53.130;8.244;2023-04-26T00:48:11;101711.28;;;3.70;57.79
10167;BME280;62970;53.130;8.244;2023-04-26T00:50:42;101708.63;;;3.67;57.63
10167;BME280;62970;53.130;8.244;2023-04-26T00:53:15;101712.03;;;3.65;57.91
10167;BME280;62970;53.130;8.244;2023-04-26T00:55:46;101711.13;;;3.63;57.84
10167;BME280;62970;53.130;8.244;2023-04-26T00:58:16;101719.72;;;3.63;57.78
10167;BME280;62970;53.130;8.244;2023-04-26T01:00:46;101717.22;;;3.66;57.86
10167;BME280;62970;53.130;8.244;2023-04-26T01:03:16;101713.81;;;3.69;57.95
10167;BME280;62970;53.130;8.244;2023-04-26T01:05:46;101719.91;;;3.72;58.07
10167;BME280;62970;53.130;8.244;2023-04-26T01:08:18;101719.09;;;3.75;57.85
10167;BME280;62970;53.130;8.244;2023-04-26T01:10:49;101724.31;;;3.78;57.79
10167;BME280;62970;53.130;8.244;2023-04-26T01:13:18;101715.78;;;3.81;57.91
10167;BME280;62970;53.130;8.244;2023-04-26T01:15:48;101719.25;;;3.83;58.07
10167;BME280;62970;53.130;8.244;2023-04-26T01:18:17;101717.56;;;3.85;58.14
10167;BME280;62970;53.130;8.244;2023-04-26T01:20:46;101716.72;;;3.86;58.26
10167;BME280;62970;53.130;8.244;2023-04-26T01:23:19;101719.28;;;3.84;57.95
10167;BME280;62970;53.130;8.244;2023-04-26T01:25:49;101718.41;;;3.84;58.10
10167;BME280;62970;53.130;8.244;2023-04-26T01:28:18;101721.81;;;3.83;57.84
10167;BME280;62970;53.130;8.244;2023-04-26T01:30:48;101721.81;;;3.81;58.28
10167;BME280;62970;53.130;8.244;2023-04-26T01:33:17;101718.28;;;3.77;58.19
10167;BME280;62970;53.130;8.244;2023-04-26T01:35:46;101716.47;;;3.72;57.98
10167;BME280;62970;53.130;8.244;2023-04-26T01:38:15;101717.19;;;3.65;57.71
10167;BME280;62970;53.130;8.244;2023-04-26T01:40:47;101719.59;;;3.57;57.99
10167;BME280;62970;53.130;8.244;2023-04-26T01:43:16;101722.09;;;3.53;57.84
10167;BME280;62970;53.130;8.244;2023-04-26T01:45:48;101724.56;;;3.47;58.23
10167;BME280;62970;53.130;8.244;2023-04-26T01:48:17;101717.56;;;3.41;58.40
10167;BME280;62970;53.130;8.244;2023-04-26T01:50:47;101715.78;;;3.38;58.37
10167;BME280;62970;53.130;8.244;2023-04-26T01:53:16;101720.91;;;3.37;58.58
10167;BME280;62970;53.130;8.244;2023-04-26T01:55:48;101710.59;;;3.37;58.38
10167;BME280;62970;53.130;8.244;2023-04-26T01:58:18;101710.59;;;3.37;58.72
10167;BME280;62970;53.130;8.244;2023-04-26T02:00:47;101712.38;;;3.39;58.82
10167;BME280;62970;53.130;8.244;2023-04-26T02:03:16;101698.63;;;3.40;58.50
10167;BME280;62970;53.130;8.244;2023-04-26T02:05:46;101695.25;;;3.43;58.84
10167;BME280;62970;53.130;8.244;2023-04-26T02:08:15;101695.31;;;3.46;58.54
10167;BME280;62970;53.130;8.244;2023-04-26T02:10:44;101697.09;;;3.49;58.90
10167;BME280;62970;53.130;8.244;2023-04-26T02:13:17;101700.53;;;3.49;58.75
10167;BME280;62970;53.130;8.244;2023-04-26T02:15:46;101704.84;;;3.50;58.77
10167;BME280;62970;53.130;8.244;2023-04-26T02:18:16;101699.63;;;3.47;58.76
10167;BME280;62970;53.130;8.244;2023-04-26T02:20:47;101703.81;;;3.42;58.42
10167;BME280;62970;53.130;8.244;2023-04-26T02:23:17;101703.69;;;3.36;58.79
10167;BME280;62970;53.130;8.244;2023-04-26T02:25:48;101707.88;;;3.29;58.64
10167;BME280;62970;53.130;8.244;2023-04-26T02:28:20;101707.78;;;3.26;58.45
10167;BME280;62970;53.130;8.244;2023-04-26T02:30:49;101709.47;;;3.24;58.61
10167;BME280;62970;53.130;8.244;2023-04-26T02:33:18;101699.16;;;3.24;58.80
10167;BME280;62970;53.130;8.244;2023-04-26T02:35:48;101700.00;;;3.23;58.97
10167;BME280;62970;53.130;8.244;2023-04-26T02:38:17;101706.91;;;3.24;58.78
10167;BME280;62970;53.130;8.244;2023-04-26T02:40:46;101706.06;;;3.25;59.23
10167;BME280;62970;53.130;8.244;2023-04-26T02:43:21;101704.34;;;3.26;58.76
10167;BME280;62970;53.130;8.244;2023-04-26T02:45:50;101706.09;;;3.27;59.15
10167;BME280;62970;53.130;8.244;2023-04-26T02:48:19;101704.34;;;3.26;58.72
10167;BME280;62970;53.130;8.244;2023-04-26T02:50:48;101708.59;;;3.24;58.53
10167;BME280;62970;53.130;8.244;2023-04-26T02:53:18;101707.63;;;3.19;58.54
10167;BME280;62970;53.130;8.244;2023-04-26T02:55:47;101712.63;;;3.11;58.85
10167;BME280;62970;53.130;8.244;2023-04-26T02:58:16;101714.13;;;3.01;58.60
10167;BME280;62970;53.130;8.244;2023-04-26T03:00:49;101725.06;;;2.91;58.51
10167;BME280;62970;53.130;8.244;2023-04-26T03:03:21;101723.09;;;2.81;59.01
10167;BME280;62970;53.130;8.244;2023-04-26T03:05:50;101716.84;;;2.71;58.63
10167;BME280;62970;53.130;8.244;2023-04-26T03:08:19;101718.34;;;2.62;59.13
10167;BME280;62970;53.130;8.244;2023-04-26T03:10:48;101726.72;;;2.53;58.97
10167;BME280;62970;53.130;8.244;2023-04-26T03:13:17;101718.81;;;2.45;59.37
10167;BME280;62970;53.130;8.244;2023-04-26T03:15:49;101709.97;;;2.36;59.13
10167;BME280;62970;53.130;8.244;2023-04-26T03:18:20;101703.84;;;2.31;59.02
10167;BME280;62970;53.130;8.244;2023-04-26T03:20:49;101716.56;;;2.25;59.10
10167;BME280;62970;53.130;8.244;2023-04-26T03:23:18;101706.09;;;2.18;59.19
10167;BME280;62970;53.130;8.244;2023-04-26T03:25:49;101697.38;;;2.13;59.46
10167;BME280;62970;53.130;8.244;2023-04-26T03:28:20;101708.38;;;2.08;59.75
10167;BME280;62970;53.130;8.244;2023-04-26T03:30:52;101709.97;;;2.03;59.29
10167;BME280;62970;53.130;8.244;2023-04-26T03:33:22;101712.41;;;1.98;59.75
10167;BME280;62970;53.130;8.244;2023-04-26T03:35:51;101703.72;;;1.93;59.89
10167;BME280;62970;53.130;8.244;2023-04-26T03:38:20;101711.34;;;1.90;59.63
10167;BME280;62970;53.130;8.244;2023-04-26T03:40:50;101706.13;;;1.87;60.14
10167;BME280;62970;53.130;8.244;2023-04-26T03:43:19;101710.44;;;1.88;60.14
10167;BME280;62970;53.130;8.244;2023-04-26T03:45:52;101720.84;;;1.93;60.35
10167;BME280;62970;53.130;8.244;2023-04-26T03:48:21;101737.44;;;2.04;60.47
10167;BME280;62970;53.130;8.244;2023-04-26T03:50:50;101730.94;;;2.18;60.47
10167;BME280;62970;53.130;8.244;2023-04-26T03:53:20;101733.81;;;2.29;60.45
10167;BME280;62970;53.130;8.244;2023-04-26T03:55:50;101723.84;;;2.41;60.40
10167;BME280;62970;53.130;8.244;2023-04-26T03:58:19;101733.50;;;2.49;60.36
10167;BME280;62970;53.130;8.244;2023-04-26T04:00:51;101718.22;;;2.57;60.22
10167;BME280;62970;53.130;8.244;2023-04-26T04:03:20;101708.09;;;2.65;60.63
10167;BME280;62970;53.130;8.244;2023-04-26T04:05:50;101713.38;;;2.69;60.61
10167;BME280;62970;53.130;8.244;2023-04-26T04:08:19;101718.63;;;2.74;60.71
10167;BME280;62970;53.130;8.244;2023-04-26T04:10:49;101716.94;;;2.76;60.34
10167;BME280;62970;53.130;8.244;2023-04-26T04:13:18;101717.91;;;2.79;60.67
10167;BME280;62970;53.130;8.244;2023-04-26T04:15:47;101719.66;;;2.82;60.66
10167;BME280;62970;53.130;8.244;2023-04-26T04:18:34;101717.13;;;2.84;60.29
10167;BME280;62970;53.130;8.244;2023-04-26T04:21:03;101712.94;;;2.89;60.86
10167;BME280;62970;53.130;8.244;2023-04-26T04:23:32;101722.56;;;2.94;60.92
10167;BME280;62970;53.130;8.244;2023-04-26T04:26:01;101730.44;;;3.00;60.98
10167;BME280;62970;53.130;8.244;2023-04-26T04:28:32;101733.19;;;3.08;61.14
10167;BME280;62970;53.130;8.244;2023-04-26T04:31:02;101717.91;;;3.17;61.13
10167;BME280;62970;53.130;8.244;2023-04-26T04:33:34;101720.63;;;3.23;60.56
10167;BME280;62970;53.130;8.244;2023-04-26T04:36:03;101709.56;;;3.29;60.95
10167;BME280;62970;53.130;8.244;2023-04-26T04:38:33;101702.81;;;3.34;60.86
10167;BME280;62970;53.130;8.244;2023-04-26T04:41:04;101708.03;;;3.37;60.45
10167;BME280;62970;53.130;8.244;2023-04-26T04:43:33;101707.22;;;3.39;60.93
10167;BME280;62970;53.130;8.244;2023-04-26T04:46:02;101707.25;;;3.41;60.89
10167;BME280;62970;53.130;8.244;2023-04-26T04:48:34;101710.72;;;3.43;60.55
10167;BME280;62970;53.130;8.244;2023-04-26T04:51:03;101712.47;;;3.44;60.97
10167;BME280;62970;53.130;8.244;2023-04-26T04:53:43;101724.56;;;3.47;61.09
10167;BME280;62970;53.130;8.244;2023-04-26T04:56:12;101717.72;;;3.49;60.58
10167;BME280;62970;53.130;8.244;2023-04-26T04:58:43;101722.06;;;3.51;60.97
10167;BME280;62970;53.130;8.244;2023-04-26T05:01:12;101727.28;;;3.54;60.78
10167;BME280;62970;53.130;8.244;2023-04-26T05:03:44;101725.63;;;3.58;60.92
10167;BME280;62970;53.130;8.244;2023-04-26T05:06:13;101727.44;;;3.62;61.28
10167;BME280;62970;53.130;8.244;2023-04-26T05:08:43;101726.69;;;3.67;61.20
10167;BME280;62970;53.130;8.244;2023-04-26T05:11:19;101724.22;;;3.73;61.26
10167;BME280;62970;53.130;8.244;2023-04-26T05:16:39;101731.41;;;3.88;61.18
10167;BME280;62970;53.130;8.244;2023-04-26T05:19:14;101744.47;;;3.97;60.95
10167;BME280;62970;53.130;8.244;2023-04-26T05:21:43;101755.06;;;4.13;60.83
10167;BME280;62970;53.130;8.244;2023-04-26T05:24:12;101751.78;;;4.21;60.98
10167;BME280;62970;53.130;8.244;2023-04-26T09:16:34;101823.47;;;8.52;53.61
10167;BME280;62970;53.130;8.244;2023-04-26T09:19:04;101813.06;;;8.54;54.72
10167;BME280;62970;53.130;8.244;2023-04-26T09:24:09;101812.25;;;8.87;54.76
10167;BME280;62970;53.130;8.244;2023-04-26T09:26:39;101817.44;;;9.08;54.81
10167;BME280;62970;53.130;8.244;2023-04-26T09:31:51;101807.84;;;9.47;53.88
10167;BME280;62970;53.130;8.244;2023-04-26T09:34:23;101809.50;;;9.66;53.03
10167;BME280;62970;53.130;8.244;2023-04-26T09:36:55;101804.22;;;9.83;52.99
10167;BME280;62970;53.130;8.244;2023-04-26T09:39:38;101812.00;;;10.01;52.71
10167;BME280;62970;53.130;8.244;2023-04-26T09:42:26;101815.38;;;10.25;51.37
10167;BME280;62970;53.130;8.244;2023-04-26T09:45:06;101808.28;;;10.46;51.01
10167;BME280;62970;53.130;8.244;2023-04-26T09:47:38;101806.38;;;10.70;50.81
10167;BME280;62970;53.130;8.244;2023-04-26T09:50:09;101809.66;;;10.93;50.83
10167;BME280;62970;53.130;8.244;2023-04-26T09:53:04;101807.72;;;11.15;50.44
10167;BME280;62970;53.130;8.244;2023-04-26T09:59:22;101806.63;;;11.37;49.88
10167;BME280;62970;53.130;8.244;2023-04-26T10:02:02;101797.91;;;11.38;49.11
10167;BME280;62970;53.130;8.244;2023-04-26T10:04:37;101806.63;;;11.37;48.48
10167;BME280;62970;53.130;8.244;2023-04-26T10:07:36;101806.66;;;11.33;48.26
10167;BME280;62970;53.130;8.244;2023-04-26T10:10:19;101808.38;;;11.35;48.31
10167;BME280;62970;53.130;8.244;2023-04-26T10:13:02;101806.66;;;11.34;47.73
10167;BME280;62970;53.130;8.244;2023-04-26T10:15:48;101809.28;;;11.33;47.28
10167;BME280;62970;53.130;8.244;2023-04-26T10:18:19;101816.25;;;11.31;47.33
10167;BME280;62970;53.130;8.244;2023-04-26T10:21:03;101813.69;;;11.28;47.32
10167;BME280;62970;53.130;8.244;2023-04-26T10:24:18;101799.75;;;11.29;46.82
10167;BME280;62970;53.130;8.244;2023-04-26T10:27:09;101798.81;;;11.34;46.41
10167;BME280;62970;53.130;8.244;2023-04-26T10:30:22;101800.47;;;11.41;47.20
10167;BME280;62970;53.130;8.244;2023-04-26T10:33:14;101793.47;;;11.48;47.04
10167;BME280;62970;53.130;8.244;2023-04-26T10:36:12;101795.13;;;11.57;46.35
10167;BME280;62970;53.130;8.244;2023-04-26T10:39:19;101797.66;;;11.61;46.60
10167;BME280;62970;53.130;8.244;2023-04-26T10:42:04;101792.38;;;11.67;46.14
10167;BME280;62970;53.130;8.244;2023-04-26T10:44:54;101791.34;;;11.79;46.10
10167;BME280;62970;53.130;8.244;2023-04-26T10:47:34;101783.38;;;11.90;46.27
10167;BME280;62970;53.130;8.244;2023-04-26T10:50:09;101784.03;;;12.05;45.87
10167;BME280;62970;53.130;8.244;2023-04-26T10:53:07;101790.78;;;12.22;46.16
10167;BME280;62970;53.130;8.244;2023-04-26T10:55:44;101787.94;;;12.37;45.58
10167;BME280;62970;53.130;8.244;2023-04-26T10:58:40;101778.09;;;12.53;46.17
10167;BME280;62970;53.130;8.244;2023-04-26T11:22:32;101816.56;;;10.99;47.17
10167;BME280;62970;53.130;8.244;2023-04-26T11:25:14;101817.88;;;10.43;48.94
10167;BME280;62970;53.130;8.244;2023-04-26T11:27:50;101809.34;;;10.07;49.07
10167;BME280;62970;53.130;8.244;2023-04-26T11:30:43;101804.22;;;9.86;50.22
10167;BME280;62970;53.130;8.244;2023-04-26T11:37:00;101802.53;;;9.73;50.60
10167;BME280;62970;53.130;8.244;2023-04-26T11:47:54;101803.19;;;10.27;49.56
10167;BME280;62970;53.130;8.244;2023-04-26T11:58:58;101809.88;;;10.66;48.81
10167;BME280;62970;53.130;8.244;2023-04-26T12:06:52;101808.63;;;11.09;48.33
10167;BME280;62970;53.130;8.244;2023-04-26T13:40:01;101830.09;;;11.39;44.39
10167;BME280;62970;53.130;8.244;2023-04-26T13:42:31;101839.63;;;11.47;44.63
10167;BME280;62970;53.130;8.244;2023-04-26T13:45:01;101831.75;;;11.49;44.17
10167;BME280;62970;53.130;8.244;2023-04-26T13:47:31;101840.50;;;11.45;43.94
10167;BME280;62970;53.130;8.244;2023-04-26T13:50:02;101847.53;;;11.35;43.82
10167;BME280;62970;53.130;8.244;2023-04-26T13:52:31;101847.72;;;11.19;43.73
10167;BME280;62970;53.130;8.244;2023-04-26T13:55:05;101847.03;;;10.95;43.54
10167;BME280;62970;53.130;8.244;2023-04-26T13:57:35;101861.13;;;10.71;43.32
10167;BME280;62970;53.130;8.244;2023-04-26T14:00:07;101860.44;;;10.45;43.81
10167;BME280;62970;53.130;8.244;2023-04-26T14:02:37;101857.94;;;10.30;43.91
10167;BME280;62970;53.130;8.244;2023-04-26T14:05:07;101860.59;;;10.13;43.85
10167;BME280;62970;53.130;8.244;2023-04-26T14:07:39;101861.50;;;10.03;44.44
10167;BME280;62970;53.130;8.244;2023-04-26T14:10:12;101856.31;;;9.89;44.53
10167;BME280;62970;53.130;8.244;2023-04-26T14:12:45;101859.81;;;9.83;44.99
10167;BME280;62970;53.130;8.244;2023-04-26T14:15:15;101859.84;;;9.73;44.25
10167;BME280;62970;53.130;8.244;2023-04-26T14:17:44;101865.06;;;9.62;44.26
10167;BME280;62970;53.130;8.244;2023-04-26T14:20:17;101867.69;;;9.53;45.04
10167;BME280;62970;53.130;8.244;2023-04-26T14:22:46;101871.16;;;9.52;45.14
10167;BME280;62970;53.130;8.244;2023-04-26T14:25:20;101875.50;;;9.48;45.34
10167;BME280;62970;53.130;8.244;2023-04-26T14:27:54;101873.78;;;9.49;45.34
10167;BME280;62970;53.130;8.244;2023-04-26T14:30:27;101881.59;;;9.52;45.91
10167;BME280;62970;53.130;8.244;2023-04-26T14:33:00;101875.50;;;9.51;46.43
10167;BME280;62970;53.130;8.244;2023-04-26T14:35:32;101880.72;;;9.51;46.92
10167;BME280;62970;53.130;8.244;2023-04-26T14:38:08;101880.72;;;9.51;47.15
10167;BME280;62970;53.130;8.244;2023-04-26T14:40:42;101880.72;;;9.51;47.69
10167;BME280;62970;53.130;8.244;2023-04-26T14:43:17;101885.94;;;9.50;47.83
10167;BME280;62970;53.130;8.244;2023-04-26T14:45:49;101895.47;;;9.48;48.00
10167;BME280;62970;53.130;8.244;2023-04-26T14:48:20;101889.41;;;9.47;48.04
10167;BME280;62970;53.130;8.244;2023-04-26T15:01:18;101883.31;;;9.57;48.88
10167;BME280;62970;53.130;8.244;2023-04-26T15:03:47;101887.63;;;9.63;49.12
10167;BME280;62970;53.130;8.244;2023-04-26T15:06:20;101880.69;;;9.67;48.92
10167;BME280;62970;53.130;8.244;2023-04-26T15:08:50;101878.09;;;9.67;48.94
10167;BME280;62970;53.130;8.244;2023-04-26T15:11:23;101876.34;;;9.69;48.86
10167;BME280;62970;53.130;8.244;2023-04-26T15:13:55;101881.53;;;9.73;49.47
10167;BME280;62970;53.130;8.244;2023-04-26T15:16:28;101873.72;;;9.76;49.27
10167;BME280;62970;53.130;8.244;2023-04-26T15:19:06;101875.44;;;9.80;49.40
10167;BME280;62970;53.130;8.244;2023-04-26T15:24:14;101872.81;;;9.89;49.30
10167;BME280;62970;53.130;8.244;2023-04-26T15:26:46;101880.59;;;9.96;49.21
10167;BME280;62970;53.130;8.244;2023-04-26T15:29:16;101872.78;;;9.97;49.48
10167;BME280;62970;53.130;8.244;2023-04-26T15:31:51;101870.16;;;9.99;49.40
10167;BME280;62970;53.130;8.244;2023-04-26T15:34:39;101871.03;;;10.04;49.16
10167;BME280;62970;53.130;8.244;2023-04-26T15:37:10;101871.91;;;10.06;49.14
10167;BME280;62970;53.130;8.244;2023-04-26T15:39:40;101864.94;;;10.08;49.28
10167;BME280;62970;53.130;8.244;2023-04-26T15:42:12;101868.38;;;10.16;49.28
10167;BME280;62970;53.130;8.244;2023-04-26T15:44:50;101865.78;;;10.22;49.50
10167;BME280;62970;53.130;8.244;2023-04-26T15:50:01;101865.69;;;10.37;49.29
10167;BME280;62970;53.130;8.244;2023-04-26T16:00:19;101855.03;;;10.74;49.56
10167;BME280;62970;53.130;8.244;2023-04-26T16:02:52;101865.41;;;10.84;48.93
10167;BME280;62970;53.130;8.244;2023-04-26T16:05:30;101860.97;;;10.94;49.22
10167;BME280;62970;53.130;8.244;2023-04-26T16:08:02;101863.53;;;11.00;48.23
10167;BME280;62970;53.130;8.244;2023-04-26T16:10:34;101858.28;;;11.02;48.37
10167;BME280;62970;53.130;8.244;2023-04-26T16:13:06;101860.91;;;11.03;48.19
10167;BME280;62970;53.130;8.244;2023-04-26T16:15:35;101862.63;;;11.04;48.28
10167;BME280;62970;53.130;8.244;2023-04-26T16:18:05;101860.00;;;11.04;48.22
10167;BME280;62970;53.130;8.244;2023-04-26T16:36:05;101849.03;;;10.63;46.73
10167;BME280;62970;53.130;8.244;2023-04-26T16:38:35;101849.09;;;10.54;46.29
10167;BME280;62970;53.130;8.244;2023-04-26T16:41:06;101855.22;;;10.46;46.00
10167;BME280;62970;53.130;8.244;2023-04-26T16:43:36;101859.63;;;10.34;45.77
10167;BME280;62970;53.130;8.244;2023-04-26T16:46:06;101856.22;;;10.21;45.86
10167;BME280;62970;53.130;8.244;2023-04-26T16:48:37;101859.72;;;10.11;45.46
10167;BME280;62970;53.130;8.244;2023-04-26T16:51:17;101861.50;;;10.01;45.65
10167;BME280;62970;53.130;8.244;2023-04-26T16:53:48;101859.78;;;9.91;45.63
10167;BME280;62970;53.130;8.244;2023-04-26T17:04:04;101863.34;;;9.61;45.87
10167;BME280;62970;53.130;8.244;2023-04-26T17:06:36;101876.38;;;9.58;45.80
10167;BME280;62970;53.130;8.244;2023-04-26T17:09:05;101877.25;;;9.55;45.67
10167;BME280;62970;53.130;8.244;2023-04-26T17:11:35;101872.91;;;9.51;45.60
10167;BME280;62970;53.130;8.244;2023-04-26T17:14:08;101876.38;;;9.49;45.22
10167;BME280;62970;53.130;8.244;2023-04-26T17:16:38;101877.25;;;9.46;45.50
10167;BME280;62970;53.130;8.244;2023-04-26T17:19:07;101875.53;;;9.45;45.86
10167;BME280;62970;53.130;8.244;2023-04-26T17:29:29;101878.13;;;9.36;45.21
10167;BME280;62970;53.130;8.244;2023-04-26T17:32:13;101872.06;;;9.31;45.28
10167;BME280;62970;53.130;8.244;2023-04-26T17:34:52;101876.41;;;9.29;45.42
10167;BME280;62970;53.130;8.244;2023-04-26T17:37:21;101879.00;;;9.29;45.24
10167;BME280;62970;53.130;8.244;2023-04-26T17:39:54;101883.34;;;9.27;45.39
10167;BME280;62970;53.130;8.244;2023-04-26T17:42:24;101879.03;;;9.24;45.38
10167;BME280;62970;53.130;8.244;2023-04-26T17:44:57;101888.56;;;9.21;45.33
10167;BME280;62970;53.130;8.244;2023-04-26T17:47:26;101882.50;;;9.16;44.94
10167;BME280;62970;53.130;8.244;2023-04-26T17:49:56;101885.97;;;9.12;45.27
10167;BME280;62970;53.130;8.244;2023-04-26T17:52:25;101891.16;;;9.09;45.03
10167;BME280;62970;53.130;8.244;2023-04-26T17:57:24;101884.22;;;9.00;45.15
10167;BME280;62970;53.130;8.244;2023-04-26T17:59:53;101888.56;;;8.94;45.17
10167;BME280;62970;53.130;8.244;2023-04-26T18:02:25;101892.88;;;8.84;45.53
10167;BME280;62970;53.130;8.244;2023-04-26T18:04:54;101892.00;;;8.77;45.70
10167;BME280;62970;53.130;8.244;2023-04-26T18:07:23;101892.84;;;8.72;45.28
10167;BME280;62970;53.130;8.244;2023-04-26T18:09:52;101891.09;;;8.65;45.27
10167;BME280;62970;53.130;8.244;2023-04-26T18:12:24;101889.34;;;8.57;45.77
10167;BME280;62970;53.130;8.244;2023-04-26T18:14:56;101892.78;;;8.53;45.73
10167;BME280;62970;53.130;8.244;2023-04-26T18:17:29;101895.38;;;8.47;45.69
10167;BME280;62970;53.130;8.244;2023-04-26T18:19:58;101896.22;;;8.43;45.58
10167;BME280;62970;53.130;8.244;2023-04-26T18:22:27;101894.50;;;8.39;45.84
10167;BME280;62970;53.130;8.244;2023-04-26T18:24:56;101897.06;;;8.33;46.37
10167;BME280;62970;53.130;8.244;2023-04-26T18:27:26;101904.00;;;8.30;46.09
10167;BME280;62970;53.130;8.244;2023-04-26T18:29:56;101904.84;;;8.24;46.01
10167;BME280;62970;53.130;8.244;2023-04-26T18:32:28;101910.00;;;8.19;46.28
10167;BME280;62970;53.130;8.244;2023-04-26T18:34:57;101913.44;;;8.14;46.76
10167;BME280;62970;53.130;8.244;2023-04-26T18:37:30;101911.69;;;8.08;46.57
10167;BME280;62970;53.130;8.244;2023-04-26T18:39:59;101916.88;;;8.04;46.67
10167;BME280;62970;53.130;8.244;2023-04-26T18:42:30;101912.50;;;7.98;46.97
10167;BME280;62970;53.130;8.244;2023-04-26T18:45:04;101924.59;;;7.93;46.63
10167;BME280;62970;53.130;8.244;2023-04-26T18:47:37;101918.53;;;7.89;46.86
10167;BME280;62970;53.130;8.244;2023-04-26T18:50:07;101916.78;;;7.87;46.92
10167;BME280;62970;53.130;8.244;2023-04-26T18:52:36;101923.69;;;7.83;47.52
10167;BME280;62970;53.130;8.244;2023-04-26T18:55:07;101924.53;;;7.81;47.19
10167;BME280;62970;53.130;8.244;2023-04-26T18:57:36;101925.38;;;7.78;47.73
10167;BME280;62970;53.130;8.244;2023-04-26T19:00:10;101923.63;;;7.74;47.72
10167;BME280;62970;53.130;8.244;2023-04-26T19:02:44;101924.47;;;7.72;47.98
10167;BME280;62970;53.130;8.244;2023-04-26T19:05:13;101925.34;;;7.71;48.08
10167;BME280;62970;53.130;8.244;2023-04-26T19:07:43;101926.19;;;7.68;47.74
10167;BME280;62970;53.130;8.244;2023-04-26T19:10:12;101932.25;;;7.67;47.94
10167;BME280;62970;53.130;8.244;2023-04-26T19:12:41;101933.09;;;7.68;48.20
10167;BME280;62970;53.130;8.244;2023-04-26T19:15:13;101935.69;;;7.66;48.28
10167;BME280;62970;53.130;8.244;2023-04-26T19:17:45;101933.06;;;7.61;48.04
10167;BME280;62970;53.130;8.244;2023-04-26T19:20:14;101941.69;;;7.57;48.53
10167;BME280;62970;53.130;8.244;2023-04-26T19:22:45;101939.06;;;7.53;48.79
10167;BME280;62970;53.130;8.244;2023-04-26T19:25:14;101936.41;;;7.47;48.45
10167;BME280;62970;53.130;8.244;2023-04-26T19:27:45;101942.38;;;7.40;48.79
10167;BME280;62970;53.130;8.244;2023-04-26T19:30:17;101946.66;;;7.33;48.90
10167;BME280;62970;53.130;8.244;2023-04-26T19:32:50;101945.72;;;7.25;49.32
10167;BME280;62970;53.130;8.244;2023-04-26T19:35:19;101943.03;;;7.17;49.62
10167;BME280;62970;53.130;8.244;2023-04-26T19:37:48;101954.22;;;7.10;49.30
10167;BME280;62970;53.130;8.244;2023-04-26T19:40:18;101952.41;;;7.03;49.75
10167;BME280;62970;53.130;8.244;2023-04-26T19:42:47;101948.88;;;6.95;50.02
10167;BME280;62970;53.130;8.244;2023-04-26T19:45:16;101946.19;;;6.86;49.71
10167;BME280;62970;53.130;8.244;2023-04-26T19:47:50;101946.97;;;6.77;50.22
10167;BME280;62970;53.130;8.244;2023-04-26T19:50:19;101946.00;;;6.67;50.39
10167;BME280;62970;53.130;8.244;2023-04-26T19:52:48;101953.66;;;6.57;50.42
10167;BME280;62970;53.130;8.244;2023-04-26T19:55:18;101944.00;;;6.45;50.58
10167;BME280;62970;53.130;8.244;2023-04-26T19:57:47;101953.38;;;6.34;50.35
10167;BME280;62970;53.130;8.244;2023-04-26T20:00:17;101955.81;;;6.22;50.54
10167;BME280;62970;53.130;8.244;2023-04-26T20:02:50;101967.78;;;6.14;50.71
10167;BME280;62970;53.130;8.244;2023-04-26T20:05:19;101966.81;;;6.06;50.87
10167;BME280;62970;53.130;8.244;2023-04-26T20:07:48;101964.19;;;6.02;51.21
10167;BME280;62970;53.130;8.244;2023-04-26T20:10:18;101971.94;;;6.02;51.43
10167;BME280;62970;53.130;8.244;2023-04-26T20:12:50;101972.03;;;6.07;51.50
10167;BME280;62970;53.130;8.244;2023-04-26T20:15:19;101970.38;;;6.14;51.43
10167;BME280;62970;53.130;8.244;2023-04-26T20:17:52;101975.66;;;6.21;51.18
10167;BME280;62970;53.130;8.244;2023-04-26T20:20:22;101972.31;;;6.30;51.28
10167;BME280;62970;53.130;8.244;2023-04-26T20:22:51;101968.97;;;6.37;51.05
10167;BME280;62970;53.130;8.244;2023-04-26T20:25:20;101967.31;;;6.44;51.28
10167;BME280;62970;53.130;8.244;2023-04-26T20:27:49;101974.28;;;6.49;51.15
10167;BME280;62970;53.130;8.244;2023-04-26T20:30:19;101976.94;;;6.54;50.88
10167;BME280;62970;53.130;8.244;2023-04-26T20:32:51;101972.63;;;6.54;51.21
10167;BME280;62970;53.130;8.244;2023-04-26T20:35:20;101981.31;;;6.58;50.75
10167;BME280;62970;53.130;8.244;2023-04-26T20:37:49;101980.47;;;6.59;51.13
10167;BME280;62970;53.130;8.244;2023-04-26T20:40:19;101976.13;;;6.59;50.83